Time;durP1;ratioP1;P1;durP2;ratioP2;P2;SDS_P1;SDS_P2;PMS_P1;PMS_P2;Temp;Humidity;BMP_temperature;BMP_pressure;BME280_temperature;BME280_humidity;BME280_pressure;Samples;Min_cycle;Max_cycle;Signal;HPM_P1;HPM_P2
2021/03/03 00:02:05;;;;;;;26.03;18.83;;;2.60;99.90;;;;;;5112111;28;20785;-66
2021/03/03 00:04:32;;;;;;;28.37;18.80;;;2.60;99.90;;;;;;5111316;28;20465;-67
2021/03/03 00:06:59;;;;;;;25.50;18.70;;;2.50;99.90;;;;;;5111868;28;20440;-66
2021/03/03 00:09:25;;;;;;;29.40;20.20;;;2.50;99.90;;;;;;5111959;28;20441;-67
2021/03/03 00:11:51;;;;;;;31.40;18.97;;;2.70;99.90;;;;;;5112042;28;20575;-67
2021/03/03 00:14:18;;;;;;;29.13;17.87;;;2.70;99.90;;;;;;5111070;28;20902;-67
2021/03/03 00:16:44;;;;;;;31.27;18.33;;;2.60;99.90;;;;;;5111701;28;21314;-67
2021/03/03 00:19:11;;;;;;;29.20;19.03;;;2.70;99.90;;;;;;5111952;28;20437;-67
2021/03/03 00:21:38;;;;;;;27.33;17.10;;;2.60;99.90;;;;;;5111778;28;20802;-68
2021/03/03 00:24:05;;;;;;;26.07;17.17;;;2.50;99.90;;;;;;5110885;28;20980;-67
2021/03/03 00:26:31;;;;;;;24.53;16.23;;;2.50;99.90;;;;;;5111883;28;20441;-67
2021/03/03 00:28:58;;;;;;;21.60;16.07;;;2.40;99.90;;;;;;5111616;28;20448;-67
2021/03/03 00:31:24;;;;;;;25.00;17.27;;;2.40;99.90;;;;;;5111689;28;20819;-67
2021/03/03 00:33:51;;;;;;;29.10;17.73;;;2.30;99.90;;;;;;5110870;28;20485;-67
2021/03/03 00:36:17;;;;;;;29.43;18.60;;;2.40;99.90;;;;;;5111616;28;20445;-67
2021/03/03 00:38:44;;;;;;;27.23;18.87;;;2.50;99.90;;;;;;5111465;28;21239;-67
2021/03/03 00:41:11;;;;;;;26.47;16.43;;;2.50;99.90;;;;;;5111763;28;20476;-67
2021/03/03 00:43:37;;;;;;;25.60;17.53;;;2.60;99.90;;;;;;5110778;28;20461;-68
2021/03/03 00:46:04;;;;;;;24.70;17.50;;;2.60;99.90;;;;;;5111480;28;20452;-68
2021/03/03 00:48:30;;;;;;;26.13;17.63;;;2.50;99.90;;;;;;5111304;28;20448;-68
2021/03/03 00:50:57;;;;;;;27.23;16.93;;;2.50;99.90;;;;;;5111291;28;20441;-68
2021/03/03 00:53:23;;;;;;;26.20;17.13;;;2.40;99.90;;;;;;5110611;28;21021;-68
2021/03/03 00:55:50;;;;;;;26.37;16.37;;;2.30;99.90;;;;;;5111482;28;20447;-68
2021/03/03 00:58:17;;;;;;;28.80;19.03;;;2.20;99.90;;;;;;5111208;28;20452;-68
2021/03/03 01:00:43;;;;;;;23.43;17.87;;;2.20;99.90;;;;;;5111254;28;20802;-68
2021/03/03 01:03:10;;;;;;;29.80;21.10;;;2.20;99.90;;;;;;5111188;28;20446;-68
2021/03/03 01:05:39;;;;;;;27.03;19.47;;;2.20;99.90;;;;;;5110232;28;20441;-66
2021/03/03 01:08:05;;;;;;;25.60;18.63;;;2.30;99.90;;;;;;5111582;28;20452;-67
2021/03/03 01:10:31;;;;;;;28.70;19.27;;;2.30;99.90;;;;;;5111563;28;20811;-68
2021/03/03 01:12:59;;;;;;;30.93;19.17;;;2.30;99.90;;;;;;5111260;28;20477;-68
2021/03/03 01:15:25;;;;;;;26.57;18.17;;;2.30;99.90;;;;;;5110497;28;20465;-68
2021/03/03 01:17:54;;;;;;;25.47;19.17;;;2.40;99.90;;;;;;5111206;28;20443;-68
2021/03/03 01:20:21;;;;;;;25.90;17.17;;;2.50;99.90;;;;;;5111363;28;20445;-66
2021/03/03 01:22:47;;;;;;;35.80;18.70;;;2.40;99.90;;;;;;5111254;28;20464;-66
2021/03/03 01:25:14;;;;;;;28.60;17.57;;;2.30;99.90;;;;;;5110464;28;20548;-66
2021/03/03 01:27:41;;;;;;;27.00;17.80;;;2.30;99.90;;;;;;5113879;28;20445;-68
2021/03/03 01:30:09;;;;;;;29.43;18.17;;;2.30;99.90;;;;;;5115468;28;20489;-66
2021/03/03 01:32:35;;;;;;;26.90;16.67;;;2.40;99.90;;;;;;5115287;28;20475;-66
2021/03/03 01:35:02;;;;;;;30.43;17.47;;;2.40;99.90;;;;;;5114821;28;20457;-66
2021/03/03 01:37:28;;;;;;;22.67;17.97;;;2.40;99.90;;;;;;5115165;28;20437;-66
2021/03/03 01:39:54;;;;;;;30.73;20.10;;;2.30;99.90;;;;;;5115368;28;20540;-66
2021/03/03 01:42:21;;;;;;;31.63;18.37;;;2.20;99.90;;;;;;5114913;27;20516;-66
2021/03/03 01:44:47;;;;;;;31.73;18.67;;;2.30;99.90;;;;;;5114284;28;20461;-66
2021/03/03 01:47:14;;;;;;;29.53;19.67;;;2.30;99.90;;;;;;5114705;28;20888;-66
2021/03/03 01:49:40;;;;;;;27.30;19.90;;;2.30;99.90;;;;;;5114819;28;20449;-66
2021/03/03 01:52:08;;;;;;;30.73;19.90;;;2.30;99.90;;;;;;5114950;28;20477;-66
2021/03/03 01:54:34;;;;;;;27.60;19.80;;;2.30;99.90;;;;;;5114274;28;20460;-66
2021/03/03 01:57:01;;;;;;;29.23;20.10;;;2.40;99.90;;;;;;5114922;28;20947;-66
2021/03/03 01:59:28;;;;;;;28.83;20.43;;;2.30;99.90;;;;;;5114467;28;20453;-66
2021/03/03 02:01:54;;;;;;;27.77;19.03;;;2.30;99.90;;;;;;5114935;28;20865;-66
2021/03/03 02:04:21;;;;;;;27.03;18.50;;;2.30;99.90;;;;;;5113818;28;20465;-66
2021/03/03 02:06:54;;;;;;;33.80;20.03;;;2.30;99.90;;;;;;5114418;28;20445;-66
2021/03/03 02:09:27;;;;;;;26.20;18.07;;;2.30;99.90;;;;;;5114289;28;20456;-66
2021/03/03 02:11:59;;;;;;;31.87;21.30;;;2.30;99.90;;;;;;5114199;28;20433;-66
2021/03/03 02:14:26;;;;;;;30.53;21.30;;;2.30;99.90;;;;;;5113585;27;20522;-67
2021/03/03 02:16:54;;;;;;;28.63;18.73;;;2.40;99.90;;;;;;5114483;28;20444;-67
2021/03/03 02:19:25;;;;;;;29.60;19.10;;;2.30;99.90;;;;;;5114149;28;20792;-66
2021/03/03 02:22:02;;;;;;;31.70;19.33;;;2.30;99.90;;;;;;5114406;27;20475;-66
2021/03/03 02:24:36;;;;;;;30.80;19.60;;;2.20;99.90;;;;;;5113142;28;20483;-66
2021/03/03 02:27:04;;;;;;;32.23;20.87;;;2.30;99.90;;;;;;5114111;28;20441;-67
2021/03/03 02:29:31;;;;;;;29.10;20.37;;;2.20;99.90;;;;;;5114207;27;20452;-67
2021/03/03 02:31:58;;;;;;;31.80;21.53;;;2.20;99.90;;;;;;5114029;28;20448;-67
2021/03/03 02:34:29;;;;;;;32.97;20.50;;;2.20;99.90;;;;;;5113358;28;20468;-67
2021/03/03 02:36:57;;;;;;;27.90;20.87;;;2.20;99.90;;;;;;5114135;28;20452;-66
2021/03/03 02:39:25;;;;;;;26.63;18.87;;;2.40;99.90;;;;;;5112399;28;20451;-67
2021/03/03 02:41:53;;;;;;;30.73;20.27;;;2.40;99.90;;;;;;5114287;28;20444;-67
2021/03/03 02:44:21;;;;;;;25.87;19.20;;;2.30;99.90;;;;;;5112899;27;20457;-67
2021/03/03 02:46:47;;;;;;;27.97;20.83;;;2.30;99.90;;;;;;5113625;27;20451;-66
2021/03/03 02:49:18;;;;;;;27.60;19.63;;;2.30;99.90;;;;;;5113742;28;20441;-67
2021/03/03 02:51:44;;;;;;;28.10;20.80;;;2.30;99.90;;;;;;5113350;28;20452;-67
2021/03/03 02:54:12;;;;;;;29.70;20.27;;;2.30;99.90;;;;;;5112908;28;20453;-67
2021/03/03 02:56:38;;;;;;;32.43;19.90;;;2.40;99.90;;;;;;5113524;28;20838;-66
2021/03/03 02:59:14;;;;;;;26.00;19.37;;;2.40;99.90;;;;;;5113484;28;21002;-67
2021/03/03 03:01:44;;;;;;;26.50;18.83;;;2.40;99.90;;;;;;5113486;28;20444;-67
2021/03/03 03:04:13;;;;;;;27.00;19.77;;;2.30;99.90;;;;;;5112457;28;20505;-66
2021/03/03 03:06:43;;;;;;;30.87;22.70;;;2.30;99.90;;;;;;5113626;28;20456;-67
2021/03/03 03:09:14;;;;;;;30.50;19.97;;;2.40;99.90;;;;;;5113379;28;20830;-66
2021/03/03 03:11:47;;;;;;;27.93;20.57;;;2.40;99.90;;;;;;5111999;28;20970;-67
2021/03/03 03:14:19;;;;;;;25.60;20.00;;;2.50;99.90;;;;;;5111696;28;20457;-66
2021/03/03 03:16:47;;;;;;;29.17;21.00;;;2.50;99.90;;;;;;5113043;28;20442;-66
2021/03/03 03:19:17;;;;;;;29.17;19.80;;;2.50;99.90;;;;;;5113043;28;20931;-66
2021/03/03 03:21:46;;;;;;;30.30;19.83;;;2.50;99.90;;;;;;5112938;28;20537;-66
2021/03/03 03:24:19;;;;;;;34.47;20.03;;;2.50;99.90;;;;;;5112066;28;20469;-67
2021/03/03 03:26:48;;;;;;;28.37;19.70;;;2.50;99.90;;;;;;5113781;28;20445;-67
2021/03/03 03:29:16;;;;;;;27.80;18.90;;;2.50;99.90;;;;;;5113327;28;20561;-66
2021/03/03 03:31:45;;;;;;;22.67;18.80;;;2.40;99.90;;;;;;5112599;28;20441;-67
2021/03/03 03:34:13;;;;;;;28.23;19.60;;;2.40;99.90;;;;;;5112229;28;20477;-67
2021/03/03 03:36:40;;;;;;;28.87;20.90;;;2.30;99.90;;;;;;5112792;28;20536;-67
2021/03/03 03:39:09;;;;;;;31.37;20.27;;;2.30;99.90;;;;;;5112639;28;20447;-66
2021/03/03 03:41:37;;;;;;;25.17;18.67;;;2.40;99.90;;;;;;5112476;27;21039;-67
2021/03/03 03:44:05;;;;;;;26.80;19.57;;;2.50;99.90;;;;;;5111846;28;20478;-66
2021/03/03 03:46:33;;;;;;;27.77;18.50;;;2.50;99.90;;;;;;5112690;28;20441;-67
2021/03/03 03:49:00;;;;;;;26.20;19.57;;;2.50;99.90;;;;;;5112311;28;20446;-66
2021/03/03 03:51:28;;;;;;;27.90;18.57;;;2.50;99.90;;;;;;5112437;28;20445;-67
2021/03/03 03:53:54;;;;;;;27.83;18.77;;;2.50;99.90;;;;;;5111521;28;20533;-67
2021/03/03 03:56:20;;;;;;;31.37;21.20;;;2.40;99.90;;;;;;5112049;28;20936;-66
2021/03/03 03:58:47;;;;;;;29.73;19.07;;;2.30;99.90;;;;;;5112387;28;20441;-66
2021/03/03 04:01:13;;;;;;;31.50;22.10;;;2.30;99.90;;;;;;5111963;28;21024;-66
2021/03/03 04:03:39;;;;;;;28.53;19.10;;;2.40;99.90;;;;;;5111450;28;20520;-67
2021/03/03 04:06:06;;;;;;;35.77;20.40;;;2.50;99.90;;;;;;5112116;28;20509;-67
2021/03/03 04:08:33;;;;;;;27.03;19.30;;;2.50;99.90;;;;;;5111831;28;20441;-67
2021/03/03 04:10:59;;;;;;;32.33;21.17;;;2.50;99.90;;;;;;5111885;28;20441;-67
2021/03/03 04:13:26;;;;;;;28.13;20.83;;;2.50;99.90;;;;;;5111446;28;21200;-68
2021/03/03 04:15:52;;;;;;;32.43;24.40;;;2.60;99.90;;;;;;5111747;28;20989;-68
2021/03/03 04:18:18;;;;;;;27.17;19.77;;;2.70;99.90;;;;;;5111885;28;20455;-67
2021/03/03 04:20:45;;;;;;;33.00;20.20;;;2.80;99.90;;;;;;5110330;28;20846;-68
2021/03/03 04:23:12;;;;;;;31.63;20.50;;;2.80;99.90;;;;;;5111243;28;20488;-67
2021/03/03 04:25:39;;;;;;;25.53;17.77;;;2.70;99.90;;;;;;5110990;28;20531;-67
2021/03/03 04:28:07;;;;;;;30.77;19.70;;;2.60;99.90;;;;;;5111705;28;20473;-68
2021/03/03 04:30:34;;;;;;;27.37;18.77;;;2.60;99.90;;;;;;5110895;28;20441;-68
2021/03/03 04:33:01;;;;;;;26.00;18.60;;;2.60;99.90;;;;;;5111355;28;20473;-68
2021/03/03 04:35:27;;;;;;;23.30;17.67;;;2.60;99.90;;;;;;5110733;28;20984;-67
2021/03/03 04:37:54;;;;;;;26.13;21.27;;;2.50;99.90;;;;;;5111396;28;20442;-68
2021/03/03 04:40:20;;;;;;;26.37;20.30;;;2.50;99.90;;;;;;5111709;28;20582;-67
2021/03/03 04:42:47;;;;;;;27.77;20.03;;;2.50;99.90;;;;;;5111522;28;20509;-68
2021/03/03 04:45:14;;;;;;;28.33;19.27;;;2.50;99.90;;;;;;5110735;28;20525;-67
2021/03/03 04:47:41;;;;;;;28.27;21.00;;;2.40;99.90;;;;;;5111373;28;20523;-68
2021/03/03 04:50:09;;;;;;;25.30;20.53;;;2.40;99.90;;;;;;5109566;28;20445;-68
2021/03/03 04:52:36;;;;;;;25.20;19.43;;;2.40;99.90;;;;;;5110982;28;20486;-67
2021/03/03 04:55:03;;;;;;;28.03;20.80;;;2.30;99.90;;;;;;5110801;28;20475;-68
2021/03/03 04:57:29;;;;;;;26.33;19.87;;;2.30;99.90;;;;;;5111271;28;20466;-68
2021/03/03 04:59:56;;;;;;;31.10;20.00;;;2.30;99.90;;;;;;5111336;28;20445;-68
2021/03/03 05:02:23;;;;;;;30.33;21.27;;;2.30;99.90;;;;;;5110505;28;20442;-67
2021/03/03 05:04:49;;;;;;;35.40;21.63;;;2.40;99.90;;;;;;5110829;28;20461;-68
2021/03/03 05:07:16;;;;;;;30.70;20.10;;;2.30;99.90;;;;;;5111225;28;20441;-68
2021/03/03 05:09:42;;;;;;;25.90;19.80;;;2.30;99.90;;;;;;5111035;28;20943;-68
2021/03/03 05:12:09;;;;;;;31.30;21.37;;;2.50;99.90;;;;;;5111336;28;20445;-68
2021/03/03 05:14:35;;;;;;;25.87;19.43;;;2.40;99.90;;;;;;5110325;28;20473;-68
2021/03/03 05:17:02;;;;;;;32.97;20.50;;;2.40;99.90;;;;;;5111424;28;20447;-68
2021/03/03 05:19:29;;;;;;;26.63;20.70;;;2.40;99.90;;;;;;5111036;28;20437;-68
2021/03/03 05:21:55;;;;;;;28.17;19.10;;;2.40;99.90;;;;;;5110534;28;21257;-75
2021/03/03 05:24:21;;;;;;;36.80;23.80;;;2.40;99.90;;;;;;5110281;28;20560;-68
2021/03/03 05:26:48;;;;;;;30.73;20.93;;;2.40;99.90;;;;;;5110563;28;20445;-68
2021/03/03 05:29:14;;;;;;;28.53;21.17;;;2.40;99.90;;;;;;5110834;28;20470;-68
2021/03/03 05:31:40;;;;;;;30.17;20.43;;;2.40;99.90;;;;;;5111209;28;20929;-67
2021/03/03 05:34:08;;;;;;;32.03;21.10;;;2.40;99.90;;;;;;5110304;28;21005;-68
2021/03/03 05:36:34;;;;;;;32.57;21.70;;;2.40;99.90;;;;;;5111269;28;20512;-68
2021/03/03 05:39:00;;;;;;;30.33;21.07;;;2.40;99.90;;;;;;5110828;28;20465;-68
2021/03/03 05:41:27;;;;;;;28.80;19.33;;;2.50;99.90;;;;;;5111050;28;20485;-69
2021/03/03 05:43:54;;;;;;;30.77;20.93;;;2.50;99.90;;;;;;5108542;28;20975;-69
2021/03/03 05:46:21;;;;;;;31.07;19.83;;;2.50;99.90;;;;;;5108605;28;20438;-68
2021/03/03 05:48:52;;;;;;;30.80;21.63;;;2.50;99.90;;;;;;5110668;28;20437;-68
2021/03/03 05:51:22;;;;;;;25.93;20.50;;;2.60;99.90;;;;;;5110772;28;20444;-68
2021/03/03 05:53:49;;;;;;;31.73;19.27;;;2.60;99.90;;;;;;5110138;28;20481;-67
2021/03/03 05:56:19;;;;;;;30.40;20.03;;;2.70;99.90;;;;;;5110821;28;20445;-68
2021/03/03 05:58:45;;;;;;;29.33;19.83;;;2.70;99.90;;;;;;5110468;28;20536;-68
2021/03/03 06:01:12;;;;;;;25.90;18.00;;;2.70;99.90;;;;;;5105280;28;20453;-68
2021/03/03 06:03:39;;;;;;;25.27;19.80;;;2.60;99.90;;;;;;5109983;28;20457;-68
2021/03/03 06:06:05;;;;;;;24.53;20.00;;;2.60;99.90;;;;;;5109491;28;20479;-69
2021/03/03 06:08:33;;;;;;;29.47;20.00;;;2.50;99.90;;;;;;5110209;28;20505;-68
2021/03/03 06:11:00;;;;;;;27.77;20.93;;;2.40;99.90;;;;;;5110341;28;20449;-69
2021/03/03 06:13:27;;;;;;;26.07;18.97;;;2.50;99.90;;;;;;5111947;28;20480;-68
2021/03/03 06:15:53;;;;;;;30.23;21.33;;;2.40;99.90;;;;;;5113943;28;20871;-67
2021/03/03 06:18:22;;;;;;;31.50;21.33;;;2.50;99.90;;;;;;5107631;28;20834;-68
2021/03/03 06:20:50;;;;;;;31.73;21.57;;;2.50;99.90;;;;;;5103534;28;20449;-68
2021/03/03 06:23:18;;;;;;;33.83;20.53;;;2.50;99.90;;;;;;5112607;28;20532;-68
2021/03/03 06:25:47;;;;;;;30.23;21.23;;;2.60;99.90;;;;;;5112458;28;20449;-68
2021/03/03 06:28:31;;;;;;;32.17;21.37;;;2.60;99.90;;;;;;5113816;28;20536;-67
2021/03/03 06:30:58;;;;;;;28.73;18.90;;;2.60;99.90;;;;;;5113420;28;20875;-66
2021/03/03 06:33:25;;;;;;;27.70;21.50;;;2.70;99.90;;;;;;5113113;28;20473;-67
2021/03/03 06:35:51;;;;;;;31.87;20.70;;;2.90;99.90;;;;;;5113798;28;20494;-67
2021/03/03 06:38:27;;;;;;;28.80;21.50;;;3.00;99.90;;;;;;5113615;28;20798;-68
2021/03/03 06:40:55;;;;;;;35.13;20.43;;;3.00;99.90;;;;;;5113745;28;20520;-66
2021/03/03 06:43:24;;;;;;;30.53;21.07;;;3.10;99.90;;;;;;5113106;28;20445;-68
2021/03/03 06:45:51;;;;;;;29.80;22.00;;;3.20;99.90;;;;;;5111968;28;20481;-68
2021/03/03 06:48:37;;;;;;;34.57;20.23;;;3.30;99.90;;;;;;5091762;28;20446;-71
2021/03/03 06:51:30;;;;;;;30.13;20.30;;;3.30;99.90;;;;;;5106527;28;20437;-69
2021/03/03 06:53:58;;;;;;;28.13;20.07;;;3.40;99.90;;;;;;5105053;28;20487;-68
2021/03/03 06:56:37;;;;;;;30.03;20.10;;;3.60;99.90;;;;;;5110547;28;20444;-67
2021/03/03 06:59:14;;;;;;;29.27;20.07;;;3.70;99.90;;;;;;5111358;28;20943;-70
2021/03/03 07:01:41;;;;;;;25.53;18.27;;;3.60;99.90;;;;;;5110998;28;21018;-69
2021/03/03 07:04:22;;;;;;;21.90;17.83;;;3.60;99.90;;;;;;5111475;28;20979;-70
2021/03/03 07:06:50;;;;;;;26.20;19.50;;;3.70;99.90;;;;;;5111209;28;20451;-69
2021/03/03 07:09:16;;;;;;;27.93;20.50;;;3.80;99.90;;;;;;5104447;28;20450;-69
2021/03/03 07:11:44;;;;;;;24.60;18.17;;;3.80;99.90;;;;;;5110940;28;20461;-69
2021/03/03 07:14:19;;;;;;;31.03;20.63;;;3.80;99.90;;;;;;5110463;28;20567;-69
2021/03/03 07:17:08;;;;;;;22.57;17.73;;;3.90;99.90;;;;;;5111294;28;20448;-69
2021/03/03 07:19:35;;;;;;;23.77;19.63;;;4.00;99.90;;;;;;5110687;28;20451;-69
2021/03/03 07:22:03;;;;;;;27.67;19.17;;;4.00;99.90;;;;;;5110869;28;20576;-69
2021/03/03 07:24:29;;;;;;;29.10;20.97;;;4.00;99.90;;;;;;5109685;28;20473;-69
2021/03/03 07:26:56;;;;;;;26.13;20.33;;;4.10;99.90;;;;;;5110526;28;20529;-69
2021/03/03 07:29:23;;;;;;;27.13;18.60;;;4.20;99.90;;;;;;5110983;27;20448;-69
2021/03/03 07:31:50;;;;;;;27.17;20.37;;;4.30;99.90;;;;;;5110297;28;20532;-68
2021/03/03 07:34:17;;;;;;;26.03;19.50;;;4.30;99.90;;;;;;5109625;28;20481;-68
2021/03/03 07:36:49;;;;;;;26.67;20.47;;;4.40;99.90;;;;;;5110676;28;20447;-68
2021/03/03 07:39:19;;;;;;;25.77;19.50;;;4.50;99.90;;;;;;5110414;27;20448;-68
2021/03/03 07:41:47;;;;;;;27.17;19.77;;;4.60;99.90;;;;;;5110343;28;20441;-68
2021/03/03 07:44:18;;;;;;;31.60;20.17;;;4.60;99.90;;;;;;5109522;28;20835;-68
2021/03/03 07:46:48;;;;;;;25.10;19.47;;;4.70;99.90;;;;;;5110385;28;20441;-68
2021/03/03 07:49:18;;;;;;;26.57;18.67;;;4.80;99.90;;;;;;5109970;28;20505;-69
2021/03/03 07:51:45;;;;;;;28.00;19.67;;;4.90;99.90;;;;;;5109843;28;20803;-68
2021/03/03 07:54:12;;;;;;;28.30;20.70;;;5.00;99.90;;;;;;5110050;28;20472;-68
2021/03/03 07:56:40;;;;;;;33.97;20.07;;;5.10;99.90;;;;;;5110675;28;20528;-68
2021/03/03 07:59:07;;;;;;;26.27;19.60;;;5.20;99.90;;;;;;5110937;28;20448;-68
2021/03/03 08:01:35;;;;;;;27.53;21.23;;;5.40;99.90;;;;;;5110815;28;20437;-69
2021/03/03 08:04:01;;;;;;;28.03;20.93;;;5.50;99.90;;;;;;5099106;28;20457;-68
2021/03/03 08:06:34;;;;;;;30.27;20.17;;;5.70;99.90;;;;;;5098185;28;20540;-69
2021/03/03 08:09:15;;;;;;;27.10;21.20;;;5.90;99.90;;;;;;5111234;28;20445;-69
2021/03/03 08:12:02;;;;;;;28.77;20.07;;;6.00;99.90;;;;;;5110837;28;20516;-68
2021/03/03 08:14:38;;;;;;;32.13;21.80;;;6.30;99.90;;;;;;5109673;28;20480;-68
2021/03/03 08:17:07;;;;;;;30.67;19.90;;;6.50;99.90;;;;;;5109758;28;20476;-68
2021/03/03 08:19:59;;;;;;;27.03;20.80;;;6.80;99.90;;;;;;5109935;28;20909;-68
2021/03/03 08:22:50;;;;;;;25.73;20.43;;;6.80;99.90;;;;;;5110082;28;20445;-68
2021/03/03 08:25:46;;;;;;;28.57;20.00;;;6.90;99.90;;;;;;5108943;28;20457;-68
2021/03/03 08:28:32;;;;;;;26.67;19.47;;;7.30;99.90;;;;;;5109997;28;20468;-69
2021/03/03 08:31:36;;;;;;;22.07;17.07;;;7.50;99.90;;;;;;5109865;28;20444;-69
2021/03/03 08:34:06;;;;;;;26.53;20.43;;;7.60;99.90;;;;;;5108836;28;20579;-69
2021/03/03 08:36:56;;;;;;;30.17;20.93;;;7.60;99.90;;;;;;5109739;28;20437;-68
2021/03/03 08:39:38;;;;;;;28.77;22.00;;;7.60;99.90;;;;;;5108084;28;20972;-69
2021/03/03 08:42:27;;;;;;;24.23;19.67;;;7.80;99.90;;;;;;5105185;28;20924;-69
2021/03/03 08:45:03;;;;;;;28.40;19.17;;;7.80;99.90;;;;;;5102551;28;20457;-69
2021/03/03 08:47:51;;;;;;;22.30;19.67;;;8.00;99.90;;;;;;5109415;28;20591;-69
2021/03/03 08:50:49;;;;;;;27.40;21.50;;;8.20;99.90;;;;;;5109796;28;21061;-69
2021/03/03 08:53:31;;;;;;;26.67;20.00;;;8.40;99.90;;;;;;5109463;28;20907;-69
2021/03/03 08:55:59;;;;;;;26.47;19.23;;;8.40;99.90;;;;;;5109635;28;20532;-69
2021/03/03 08:59:03;;;;;;;38.13;22.53;;;8.50;99.90;;;;;;5109774;28;20449;-68
2021/03/03 09:01:54;;;;;;;22.80;18.90;;;8.70;99.90;;;;;;5109786;28;20441;-69
2021/03/03 09:04:22;;;;;;;26.70;21.43;;;8.70;99.90;;;;;;5093173;28;20512;-69
2021/03/03 09:06:51;;;;;;;25.80;19.33;;;8.90;99.90;;;;;;5108996;28;20548;-69
2021/03/03 09:09:18;;;;;;;24.30;19.80;;;9.10;99.90;;;;;;5109604;28;20445;-69
2021/03/03 09:11:44;;;;;;;23.60;19.70;;;9.30;99.90;;;;;;5109250;28;21102;-69
2021/03/03 09:14:11;;;;;;;24.13;19.20;;;9.50;99.90;;;;;;5108574;28;20572;-69
2021/03/03 09:16:53;;;;;;;28.87;21.60;;;9.60;99.90;;;;;;5108815;28;20532;-69
2021/03/03 09:19:20;;;;;;;29.50;20.37;;;9.70;99.90;;;;;;5109278;28;20883;-69
2021/03/03 09:21:46;;;;;;;25.37;20.87;;;9.90;99.90;;;;;;5104785;28;20507;-69
2021/03/03 09:24:15;;;;;;;26.57;20.80;;;10.10;99.90;;;;;;5105430;28;20532;-68
2021/03/03 09:26:43;;;;;;;28.90;20.93;;;9.80;99.90;;;;;;5102293;28;20574;-69
2021/03/03 09:29:25;;;;;;;22.10;18.73;;;9.80;99.90;;;;;;5109927;28;20434;-69
2021/03/03 09:31:52;;;;;;;23.10;20.50;;;10.10;99.90;;;;;;5109941;28;20552;-69
2021/03/03 09:34:18;;;;;;;25.27;20.97;;;10.30;99.90;;;;;;5109375;28;20962;-70
2021/03/03 09:36:56;;;;;;;29.17;20.40;;;10.50;99.90;;;;;;5109691;28;21020;-68
2021/03/03 09:39:24;;;;;;;27.10;19.77;;;10.50;99.90;;;;;;5102081;28;20558;-71
2021/03/03 09:41:58;;;;;;;25.60;20.33;;;10.60;99.90;;;;;;5104856;28;20540;-69
2021/03/03 09:44:25;;;;;;;28.23;20.77;;;10.60;99.90;;;;;;5107869;28;21002;-69
2021/03/03 09:46:57;;;;;;;29.03;20.57;;;10.60;99.90;;;;;;5108775;28;20468;-68
2021/03/03 09:49:25;;;;;;;26.43;20.30;;;10.60;99.90;;;;;;5112740;28;20467;-69
2021/03/03 09:51:51;;;;;;;31.87;21.90;;;10.50;99.90;;;;;;5111927;28;20445;-69
2021/03/03 09:54:31;;;;;;;30.90;22.37;;;10.50;99.90;;;;;;5111361;28;20602;-69
2021/03/03 09:57:02;;;;;;;29.77;20.97;;;10.70;99.90;;;;;;5112818;28;20536;-69
2021/03/03 09:59:30;;;;;;;28.60;20.97;;;10.90;99.90;;;;;;5112185;27;20445;-69
2021/03/03 10:01:58;;;;;;;31.27;20.60;;;11.10;99.90;;;;;;5112644;28;20452;-69
2021/03/03 10:04:25;;;;;;;25.13;20.20;;;11.40;99.90;;;;;;5111476;28;20883;-69
2021/03/03 10:06:51;;;;;;;22.27;19.10;;;11.60;99.90;;;;;;5112372;28;20469;-70
2021/03/03 10:09:18;;;;;;;28.60;19.83;;;11.70;99.90;;;;;;5112413;28;20436;-70
2021/03/03 10:11:45;;;;;;;28.20;19.70;;;11.50;99.90;;;;;;5112843;28;20449;-69
2021/03/03 10:14:13;;;;;;;26.50;20.63;;;11.60;99.90;;;;;;5111045;28;20476;-68
2021/03/03 10:16:40;;;;;;;23.40;18.00;;;11.70;99.90;;;;;;5112608;28;20452;-69
2021/03/03 10:19:08;;;;;;;21.93;17.90;;;11.70;99.90;;;;;;5112195;28;20536;-68
2021/03/03 10:21:44;;;;;;;23.07;18.73;;;11.60;99.90;;;;;;5112119;28;20441;-69
2021/03/03 10:24:16;;;;;;;25.73;17.50;;;11.60;99.90;;;;;;5110873;28;20469;-69
2021/03/03 10:26:46;;;;;;;26.27;17.60;;;11.70;99.90;;;;;;5111868;28;20967;-69
2021/03/03 10:29:13;;;;;;;26.53;18.37;;;11.80;99.90;;;;;;5111984;28;21015;-69
2021/03/03 10:31:40;;;;;;;23.93;17.73;;;11.80;99.90;;;;;;5111810;28;20528;-69
2021/03/03 10:34:12;;;;;;;26.33;19.23;;;11.90;99.90;;;;;;5110608;28;20852;-69
2021/03/03 10:36:42;;;;;;;18.57;16.63;;;11.90;99.90;;;;;;5112072;28;20449;-69
2021/03/03 10:39:09;;;;;;;21.33;17.23;;;12.00;99.90;;;;;;5112022;28;20540;-69
2021/03/03 10:41:37;;;;;;;25.80;18.07;;;12.10;99.90;;;;;;5109593;28;20446;-69
2021/03/03 10:44:06;;;;;;;24.83;20.00;;;12.30;99.90;;;;;;5105937;28;20457;-69
2021/03/03 10:46:32;;;;;;;24.20;18.90;;;12.50;99.90;;;;;;5111175;28;20474;-69
2021/03/03 10:49:12;;;;;;;26.50;18.90;;;12.50;99.90;;;;;;5111471;27;20513;-69
2021/03/03 10:51:39;;;;;;;24.07;17.70;;;12.80;99.90;;;;;;5111685;28;21078;-69
2021/03/03 10:54:07;;;;;;;25.60;19.10;;;12.70;99.80;;;;;;5110240;28;20588;-69
2021/03/03 10:56:35;;;;;;;19.73;17.63;;;12.70;99.40;;;;;;5111249;28;20996;-69
2021/03/03 10:59:02;;;;;;;24.10;17.73;;;12.70;99.50;;;;;;5110279;28;20446;-69
2021/03/03 11:01:43;;;;;;;21.07;17.97;;;12.80;99.50;;;;;;5111394;28;20441;-69
2021/03/03 11:04:10;;;;;;;23.87;17.90;;;12.90;99.50;;;;;;5110269;27;20460;-69
2021/03/03 11:06:37;;;;;;;22.17;18.70;;;12.80;98.60;;;;;;5110960;28;20949;-70
2021/03/03 11:09:06;;;;;;;25.30;18.70;;;13.20;98.90;;;;;;5111065;28;20448;-69
2021/03/03 11:11:32;;;;;;;24.60;18.33;;;13.40;98.50;;;;;;5110764;28;20486;-69
2021/03/03 11:13:59;;;;;;;24.67;18.30;;;13.40;98.60;;;;;;5109499;28;20477;-69
2021/03/03 11:16:25;;;;;;;20.40;18.20;;;13.80;98.20;;;;;;5111084;28;20477;-69
2021/03/03 11:18:52;;;;;;;23.83;18.70;;;14.10;97.60;;;;;;5111175;28;20445;-69
2021/03/03 11:21:19;;;;;;;23.47;18.93;;;14.10;97.40;;;;;;5111027;28;20517;-69
2021/03/03 11:23:45;;;;;;;22.47;18.90;;;14.20;97.00;;;;;;5110009;28;21129;-69
2021/03/03 11:26:12;;;;;;;22.80;18.00;;;14.30;96.70;;;;;;5110474;28;20857;-69
2021/03/03 11:28:38;;;;;;;26.70;19.77;;;14.30;96.20;;;;;;5111131;28;20448;-69
2021/03/03 11:31:05;;;;;;;20.33;18.23;;;14.30;96.60;;;;;;5111476;28;20497;-69
2021/03/03 11:33:31;;;;;;;20.10;17.50;;;14.40;96.20;;;;;;5110518;28;20481;-69
2021/03/03 11:35:58;;;;;;;26.70;19.30;;;14.40;96.00;;;;;;5110916;28;20456;-69
2021/03/03 11:38:25;;;;;;;23.37;17.70;;;14.30;96.20;;;;;;5108618;28;20470;-69
2021/03/03 11:40:51;;;;;;;21.70;18.37;;;14.50;96.30;;;;;;5110788;28;20498;-69
2021/03/03 11:43:18;;;;;;;23.47;17.53;;;14.90;95.50;;;;;;5110301;27;20516;-69
2021/03/03 11:45:45;;;;;;;19.83;16.70;;;15.30;95.20;;;;;;5109990;28;20464;-69
2021/03/03 11:48:11;;;;;;;21.70;18.07;;;15.40;94.30;;;;;;5110335;28;20520;-70
2021/03/03 11:50:38;;;;;;;21.70;17.80;;;15.50;94.40;;;;;;5110167;28;20443;-69
2021/03/03 11:53:05;;;;;;;24.80;18.03;;;15.30;94.20;;;;;;5110213;28;20921;-70
2021/03/03 11:55:32;;;;;;;25.57;18.53;;;15.10;93.90;;;;;;5109031;28;20469;-70
2021/03/03 11:57:58;;;;;;;26.13;19.07;;;14.90;94.20;;;;;;5110351;28;20444;-70
2021/03/03 12:00:25;;;;;;;20.27;18.13;;;14.80;95.10;;;;;;5110181;28;20505;-71
2021/03/03 12:02:51;;;;;;;19.73;17.53;;;15.00;93.90;;;;;;5110349;28;20477;-68
2021/03/03 12:05:18;;;;;;;20.07;17.50;;;15.20;94.60;;;;;;5108473;28;20469;-71
2021/03/03 12:07:45;;;;;;;20.40;17.90;;;15.60;94.20;;;;;;5109441;28;20453;-69
2021/03/03 12:10:13;;;;;;;19.53;16.60;;;15.80;92.90;;;;;;5098398;28;20452;-69
2021/03/03 12:12:40;;;;;;;22.23;18.07;;;16.00;93.70;;;;;;5102460;28;20445;-68
2021/03/03 12:15:07;;;;;;;24.33;17.80;;;16.30;93.40;;;;;;5107428;28;20458;-70
2021/03/03 12:17:34;;;;;;;22.00;19.00;;;16.40;92.50;;;;;;5110248;28;20448;-71
2021/03/03 12:20:00;;;;;;;22.77;17.70;;;16.60;92.10;;;;;;5106284;28;20902;-69
2021/03/03 12:22:27;;;;;;;25.80;19.40;;;16.70;91.70;;;;;;5111700;28;20438;-70
2021/03/03 12:24:53;;;;;;;24.13;18.90;;;16.70;91.80;;;;;;5111770;28;20464;-71
2021/03/03 12:27:20;;;;;;;22.50;19.90;;;16.40;91.70;;;;;;5112451;28;20520;-70
2021/03/03 12:29:47;;;;;;;21.60;17.10;;;16.10;92.00;;;;;;5112528;28;20465;-70
2021/03/03 12:32:13;;;;;;;24.43;19.20;;;16.00;92.60;;;;;;5112488;28;20445;-70
2021/03/03 12:34:40;;;;;;;22.30;19.00;;;16.00;93.20;;;;;;5109450;28;20485;-70
2021/03/03 12:37:07;;;;;;;22.80;19.27;;;16.20;92.70;;;;;;5111629;27;21123;-69
2021/03/03 12:39:33;;;;;;;22.93;18.80;;;16.40;92.90;;;;;;5101813;28;20584;-70
2021/03/03 12:41:59;;;;;;;23.63;18.27;;;16.40;92.90;;;;;;5102723;28;20550;-69
2021/03/03 12:44:27;;;;;;;23.50;19.77;;;16.50;93.10;;;;;;5106033;28;20548;-67